sensor_id;sensor_type;location;lat;lon;timestamp;P1;durP1;ratioP1;P2;durP2;ratioP2
76708;SDS011;65638;44.498;0.166;2023-02-03T00:03:13;10.97;;;3.10;;
76708;SDS011;65638;44.498;0.166;2023-02-03T00:17:04;4.53;;;1.90;;
76708;SDS011;65638;44.498;0.166;2023-02-03T00:30:58;8.17;;;2.70;;
76708;SDS011;65638;44.498;0.166;2023-02-03T00:44:45;3.00;;;1.20;;
76708;SDS011;65638;44.498;0.166;2023-02-03T00:58:37;6.77;;;2.20;;
76708;SDS011;65638;44.498;0.166;2023-02-03T01:12:28;3.97;;;2.30;;
76708;SDS011;65638;44.498;0.166;2023-02-03T01:26:18;3.77;;;2.03;;
76708;SDS011;65638;44.498;0.166;2023-02-03T01:40:07;6.10;;;2.80;;
76708;SDS011;65638;44.498;0.166;2023-02-03T01:53:58;3.07;;;1.17;;
76708;SDS011;65638;44.498;0.166;2023-02-03T02:07:49;3.33;;;1.97;;
76708;SDS011;65638;44.498;0.166;2023-02-03T02:21:44;1.90;;;1.37;;
76708;SDS011;65638;44.498;0.166;2023-02-03T02:35:34;3.83;;;1.93;;
76708;SDS011;65638;44.498;0.166;2023-02-03T02:49:21;3.50;;;1.53;;
76708;SDS011;65638;44.498;0.166;2023-02-03T03:03:11;7.13;;;1.43;;
76708;SDS011;65638;44.498;0.166;2023-02-03T03:17:01;2.37;;;1.23;;
76708;SDS011;65638;44.498;0.166;2023-02-03T03:30:51;3.27;;;1.47;;
76708;SDS011;65638;44.498;0.166;2023-02-03T03:44:42;1.13;;;0.70;;
76708;SDS011;65638;44.498;0.166;2023-02-03T03:58:30;1.73;;;0.70;;
76708;SDS011;65638;44.498;0.166;2023-02-03T04:12:21;2.00;;;0.80;;
76708;SDS011;65638;44.498;0.166;2023-02-03T04:26:10;2.33;;;1.60;;
76708;SDS011;65638;44.498;0.166;2023-02-03T04:40:00;2.20;;;1.07;;
76708;SDS011;65638;44.498;0.166;2023-02-03T04:53:50;2.80;;;1.10;;
76708;SDS011;65638;44.498;0.166;2023-02-03T05:07:41;2.20;;;1.23;;
76708;SDS011;65638;44.498;0.166;2023-02-03T05:21:31;2.80;;;1.50;;
76708;SDS011;65638;44.498;0.166;2023-02-03T05:35:26;2.80;;;1.17;;
76708;SDS011;65638;44.498;0.166;2023-02-03T05:49:12;1.13;;;1.03;;
76708;SDS011;65638;44.498;0.166;2023-02-03T06:03:03;3.30;;;1.10;;
76708;SDS011;65638;44.498;0.166;2023-02-03T06:16:53;2.13;;;1.43;;
76708;SDS011;65638;44.498;0.166;2023-02-03T06:30:43;1.73;;;1.00;;
76708;SDS011;65638;44.498;0.166;2023-02-03T06:44:35;1.33;;;1.23;;
76708;SDS011;65638;44.498;0.166;2023-02-03T06:58:24;4.90;;;4.13;;
76708;SDS011;65638;44.498;0.166;2023-02-03T07:12:15;5.23;;;1.83;;
76708;SDS011;65638;44.498;0.166;2023-02-03T07:39:56;3.23;;;2.07;;
76708;SDS011;65638;44.498;0.166;2023-02-03T07:53:46;4.07;;;2.53;;
76708;SDS011;65638;44.498;0.166;2023-02-03T08:07:40;4.90;;;2.87;;
76708;SDS011;65638;44.498;0.166;2023-02-03T08:21:32;6.00;;;2.70;;
76708;SDS011;65638;44.498;0.166;2023-02-03T08:35:23;20.90;;;9.27;;
76708;SDS011;65638;44.498;0.166;2023-02-03T08:49:14;16.70;;;8.27;;
76708;SDS011;65638;44.498;0.166;2023-02-03T09:03:05;17.00;;;7.53;;
76708;SDS011;65638;44.498;0.166;2023-02-03T09:16:55;18.43;;;8.63;;
76708;SDS011;65638;44.498;0.166;2023-02-03T09:30:47;25.40;;;11.83;;
76708;SDS011;65638;44.498;0.166;2023-02-03T09:44:41;11.47;;;6.73;;
76708;SDS011;65638;44.498;0.166;2023-02-03T09:58:32;7.43;;;2.57;;
76708;SDS011;65638;44.498;0.166;2023-02-03T10:12:33;5.30;;;2.33;;
76708;SDS011;65638;44.498;0.166;2023-02-03T10:26:17;9.17;;;2.20;;
76708;SDS011;65638;44.498;0.166;2023-02-03T10:40:11;5.33;;;1.93;;
76708;SDS011;65638;44.498;0.166;2023-02-03T10:54:01;3.97;;;1.80;;
76708;SDS011;65638;44.498;0.166;2023-02-03T11:07:53;3.40;;;1.60;;
76708;SDS011;65638;44.498;0.166;2023-02-03T11:21:45;4.33;;;1.73;;
76708;SDS011;65638;44.498;0.166;2023-02-03T11:35:37;3.03;;;1.77;;
76708;SDS011;65638;44.498;0.166;2023-02-03T12:03:18;4.63;;;1.47;;
76708;SDS011;65638;44.498;0.166;2023-02-03T12:17:11;5.50;;;2.10;;
76708;SDS011;65638;44.498;0.166;2023-02-03T12:30:58;13.73;;;2.60;;
76708;SDS011;65638;44.498;0.166;2023-02-03T12:44:49;4.80;;;1.40;;
76708;SDS011;65638;44.498;0.166;2023-02-03T12:58:48;6.13;;;2.63;;
76708;SDS011;65638;44.498;0.166;2023-02-03T13:12:27;4.93;;;2.00;;
76708;SDS011;65638;44.498;0.166;2023-02-03T13:26:27;5.93;;;2.03;;
76708;SDS011;65638;44.498;0.166;2023-02-03T13:53:58;5.33;;;2.60;;
76708;SDS011;65638;44.498;0.166;2023-02-03T14:07:48;5.67;;;2.10;;
76708;SDS011;65638;44.498;0.166;2023-02-03T14:21:39;-1.00;;;-1.00;;
76708;SDS011;65638;44.498;0.166;2023-02-03T14:35:28;7.20;;;2.57;;
76708;SDS011;65638;44.498;0.166;2023-02-03T14:49:23;10.00;;;1.93;;
76708;SDS011;65638;44.498;0.166;2023-02-03T15:30:48;5.87;;;1.93;;
76708;SDS011;65638;44.498;0.166;2023-02-03T15:44:38;3.33;;;1.33;;
76708;SDS011;65638;44.498;0.166;2023-02-03T16:12:17;5.93;;;2.07;;
76708;SDS011;65638;44.498;0.166;2023-02-03T16:40:01;2.70;;;1.53;;
76708;SDS011;65638;44.498;0.166;2023-02-03T16:53:41;3.07;;;1.43;;
76708;SDS011;65638;44.498;0.166;2023-02-03T17:21:14;6.20;;;2.07;;
76708;SDS011;65638;44.498;0.166;2023-02-03T17:34:59;4.27;;;1.50;;
76708;SDS011;65638;44.498;0.166;2023-02-03T17:48:47;5.13;;;1.83;;
76708;SDS011;65638;44.498;0.166;2023-02-03T18:02:36;4.33;;;1.60;;
76708;SDS011;65638;44.498;0.166;2023-02-03T18:16:26;7.00;;;2.70;;
76708;SDS011;65638;44.498;0.166;2023-02-03T18:30:18;6.40;;;1.70;;
76708;SDS011;65638;44.498;0.166;2023-02-03T18:44:07;4.37;;;1.90;;
76708;SDS011;65638;44.498;0.166;2023-02-03T18:57:56;11.40;;;2.60;;
76708;SDS011;65638;44.498;0.166;2023-02-03T19:11:47;6.87;;;1.63;;
76708;SDS011;65638;44.498;0.166;2023-02-03T19:25:38;3.97;;;1.70;;
76708;SDS011;65638;44.498;0.166;2023-02-03T19:39:28;2.37;;;1.40;;
76708;SDS011;65638;44.498;0.166;2023-02-03T19:53:19;8.03;;;3.50;;
76708;SDS011;65638;44.498;0.166;2023-02-03T20:07:09;7.37;;;3.40;;
76708;SDS011;65638;44.498;0.166;2023-02-03T20:20:59;8.27;;;2.57;;
76708;SDS011;65638;44.498;0.166;2023-02-03T20:34:50;4.00;;;1.67;;
76708;SDS011;65638;44.498;0.166;2023-02-03T20:48:40;5.57;;;1.87;;
76708;SDS011;65638;44.498;0.166;2023-02-03T21:02:35;3.73;;;1.23;;
76708;SDS011;65638;44.498;0.166;2023-02-03T21:16:20;3.13;;;1.60;;
76708;SDS011;65638;44.498;0.166;2023-02-03T21:43:59;7.93;;;2.63;;
76708;SDS011;65638;44.498;0.166;2023-02-03T21:57:51;5.43;;;1.93;;
76708;SDS011;65638;44.498;0.166;2023-02-03T22:11:39;11.47;;;2.77;;
76708;SDS011;65638;44.498;0.166;2023-02-03T22:25:29;3.13;;;1.60;;
76708;SDS011;65638;44.498;0.166;2023-02-03T22:39:20;9.63;;;3.60;;
76708;SDS011;65638;44.498;0.166;2023-02-03T22:53:09;5.13;;;2.53;;
76708;SDS011;65638;44.498;0.166;2023-02-03T23:06:59;7.33;;;2.60;;
76708;SDS011;65638;44.498;0.166;2023-02-03T23:20:51;5.87;;;3.60;;
76708;SDS011;65638;44.498;0.166;2023-02-03T23:34:47;11.23;;;4.53;;
76708;SDS011;65638;44.498;0.166;2023-02-03T23:48:30;7.70;;;4.13;;
